Skip Navigation Links Skip Navigation Links

Current Weather

Martin State, Baltimore

For information only: do not use for flight planning or navigation.
Latest weather
Observation time Sunday, August 1, 2021 5:15 AM EDT
Local time Sunday, August 1, 2021 5:37 AM EDT
Flight conditions Marginal Visual Meteorological Conditions
Winds
Wind speed calm
Visibility 10 mi.
Sky condition
Ceiling 2,500 ft. broken clouds
Cloud layer scattered clouds 2,000 ft.
Cloud layer broken clouds 2,500 ft.
Cloud layer overcast 12,000 ft.
Temperature 72°F
Dewpoint 72°F
Altimeter 29.91 in.Hg
Derived measurements
Relative humidity 100%
Density altitude 1206 ft.
Remarks
Fully automated report.
Automated weather observing station with precipitation discriminator.
METAR KMTN 010915Z AUTO 00000KT 10SM SCT020 BKN025 OVC120 22/22 A2991 RMK AO2

Settings

Location code

InnerDrive.Weather 4.0.6770.0 Release CLR 4.0.30319.42000
Copyright ©2018 Inner Drive Technology. All rights reserved. Portions Copyright ©1986-2018 David Braverman.

Find weather

Site navigation


Skip Navigation Links

Place info

Page info

PayPal - The safer, easier way to pay online!

Return home.

Copyright ©2021 Inner Drive Technology. Purveyors of fine, hand-crafted computer software. Page printed 2021-08-01T09:37:23 UTC.